Tuesday, December 18, 2018, 12:17 PM EST
Back to Local

KSWF, Newburgh / Stewart

Location: New Windsor, NY, United States Lat: 41.5
Local Time: 12:17 PM EST (17:17 GMT) Lon: -74.1
Time Zone: US/Eastern Elev: 492 ft

Show me the last for .
Show Coded

Time T Td Feel RH Dir Speed Gust Alt SLP Vis Weather Sky Remarks
2018-12-18 11:45 30 16 17 54 320° 14 23 30.03 - 10 FEW040 None
2018-12-18 10:45 28 16 14 58 320° 14 23 30.04 - 20 FEW040 None
2018-12-18 09:45 27 16 12 63 320° 14 23 30.04 - 20 FEW035 None
2018-12-18 08:45 27 16 12 63 320° 14 23 30.01 - 10 FEW035 None
2018-12-18 07:45 25 16 11 68 300° 14 20 29.98 - 10 SCT025 None
2018-12-18 06:45 25 16 10 68 300° 14 23 29.98 - 10 SCT025 None
2018-12-18 05:45 27 18 10 68 320° 20 30 29.92 - 10 SCT035 BKN050 None
2018-12-18 04:45 28 18 13 63 320° 16 30 29.88 - 10 SCT035 BKN050 None
2018-12-18 03:45 28 19 12 68 320° 16 32 29.87 - 10 SCT070 None
2018-12-18 02:45 32 19 17 59 320° 12 32 29.79 - 10 BKN070 None
2018-12-18 01:45 32 19 17 59 320° 12 32 29.79 - 10 BKN070 None
2018-12-18 00:45 34 23 20 64 300° 17 31 29.76 - 10 BKN070 None
2018-12-17 23:45 36 25 22 64 300° 21 33 29.75 - 10 BKN070 None
2018-12-17 22:45 36 28 23 74 300° 17 29 29.73 - 10 BKN070 None
2018-12-17 21:45 36 30 23 80 280° 17 25 29.74 - 10 SCT040 BKN070 None
2018-12-17 20:45 37 28 26 69 300° 14 23 29.74 - 10 SCT040 OVC070 None
2018-12-17 19:45 37 28 27 69 290° 12 18 29.74 - 10 SCT040 OVC060 None
2018-12-17 18:45 37 30 30 74 290° 12 - 29.73 - 10 OVC040 None
2018-12-17 17:45 39 30 29 69 290° 14 21 29.72 - 10 BKN040 OVC060 None
2018-12-17 16:45 39 30 29 69 300° 14 23 29.70 - 10 BKN040 OVC060 None
2018-12-17 15:45 39 30 29 69 300° 14 23 29.68 - 10 BKN040 OVC050 None
2018-12-17 14:45 41 28 31 60 300° 14 23 29.67 - 10 BKN040 None
2018-12-17 13:45 43 34 34 70 300° 12 21 29.66 - 10 BKN040 None
2018-12-17 12:45 41 36 31 80 300° 14 23 29.67 - 10 OVC025 None

Support USWX by starting your Amazon purchase here.